Time;durP1;ratioP1;P1;durP2;ratioP2;P2;SDS_P1;SDS_P2;PMS_P1;PMS_P2;Temp;Humidity;BMP_temperature;BMP_pressure;BME280_temperature;BME280_humidity;BME280_pressure;Samples;Min_cycle;Max_cycle;Signal;HPM_P1;HPM_P2
2022/11/28 00:01:07;;;;;;;9.63;7.10;;;6.70;97.70;;;;;;5009959;28;20474;-78
2022/11/28 00:03:33;;;;;;;8.17;3.73;;;6.60;99.90;;;;;;5009972;28;20448;-79
2022/11/28 00:06:03;;;;;;;4.50;2.67;;;6.60;97.40;;;;;;4992738;28;20478;-78
2022/11/28 00:08:29;;;;;;;4.90;3.60;;;6.70;97.40;;;;;;5009104;28;20266;-79
2022/11/28 00:10:55;;;;;;;2.93;2.63;;;6.90;97.30;;;;;;5008957;28;20966;-79
2022/11/28 00:13:20;;;;;;;2.80;2.60;;;6.80;97.20;;;;;;4976393;28;20185;-79
2022/11/28 00:15:57;;;;;;;4.50;2.70;;;6.80;95.20;;;;;;4976166;28;20292;-79
2022/11/28 00:18:24;;;;;;;4.17;3.03;;;6.80;95.90;;;;;;5008865;28;20207;-79
2022/11/28 00:20:50;;;;;;;2.90;2.53;;;6.80;95.10;;;;;;5008455;28;20474;-78
2022/11/28 00:23:15;;;;;;;3.33;2.70;;;6.90;93.60;;;;;;5009457;28;20456;-78
2022/11/28 00:25:41;;;;;;;2.90;2.60;;;7.00;94.60;;;;;;4991631;28;20216;-78
2022/11/28 00:28:06;;;;;;;3.93;2.90;;;7.10;92.70;;;;;;5007836;28;20185;-78
2022/11/28 00:30:36;;;;;;;4.40;3.07;;;7.10;92.50;;;;;;5007836;28;20194;-79
2022/11/28 00:33:02;;;;;;;4.40;3.63;;;7.30;93.00;;;;;;5008280;28;20213;-79
2022/11/28 00:35:28;;;;;;;6.80;5.10;;;7.10;95.90;;;;;;5008797;28;20431;-79
2022/11/28 00:37:54;;;;;;;10.70;5.87;;;7.00;97.30;;;;;;5009563;28;20431;-79
2022/11/28 00:40:19;;;;;;;14.50;6.60;;;6.90;99.50;;;;;;4991857;28;20201;-77
2022/11/28 00:42:45;;;;;;;9.20;6.40;;;6.80;99.90;;;;;;5008060;28;20221;-78
2022/11/28 00:45:10;;;;;;;7.87;6.00;;;6.70;99.90;;;;;;5008287;28;20324;-77
2022/11/28 00:47:36;;;;;;;9.90;6.87;;;6.60;99.90;;;;;;5008141;28;20179;-77
2022/11/28 00:50:02;;;;;;;9.43;7.10;;;6.50;99.90;;;;;;4991917;28;20196;-77
2022/11/28 00:52:27;;;;;;;12.57;8.40;;;6.20;99.90;;;;;;4991465;28;20243;-78
2022/11/28 00:54:53;;;;;;;12.60;8.77;;;6.00;99.90;;;;;;5007736;28;20432;-78
2022/11/28 00:57:19;;;;;;;12.03;8.70;;;5.80;99.90;;;;;;4991588;28;20200;-78
2022/11/28 00:59:44;;;;;;;14.40;9.27;;;5.70;99.90;;;;;;5007910;28;20223;-77
2022/11/28 01:02:10;;;;;;;15.17;9.60;;;5.50;99.90;;;;;;5007131;28;20396;-78
2022/11/28 01:04:35;;;;;;;13.77;9.10;;;5.50;99.90;;;;;;5009148;28;20269;-77
2022/11/28 01:07:01;;;;;;;11.67;8.10;;;5.30;99.90;;;;;;4991369;28;20705;-77
2022/11/28 01:09:27;;;;;;;17.30;9.93;;;5.30;99.90;;;;;;5011500;28;20173;-78
2022/11/28 01:11:53;;;;;;;12.77;9.83;;;5.20;99.90;;;;;;4978417;28;20209;-78
2022/11/28 01:14:21;;;;;;;13.10;9.57;;;5.30;99.90;;;;;;5012834;28;20173;-82
2022/11/28 01:16:47;;;;;;;14.80;9.20;;;5.10;99.90;;;;;;5011284;28;20424;-79
2022/11/28 01:19:13;;;;;;;14.73;9.20;;;5.10;99.90;;;;;;5011283;28;20934;-79
2022/11/28 01:21:39;;;;;;;14.13;9.97;;;5.10;99.90;;;;;;5011147;28;20551;-78
2022/11/28 01:24:05;;;;;;;14.67;9.50;;;5.10;99.90;;;;;;4979335;28;20428;-78
2022/11/28 01:26:31;;;;;;;12.10;8.47;;;5.00;99.90;;;;;;5011297;28;20446;-78
2022/11/28 01:28:58;;;;;;;14.33;9.00;;;4.70;99.90;;;;;;5011885;28;20913;-79
2022/11/28 01:31:26;;;;;;;14.07;9.00;;;4.70;99.90;;;;;;5011425;28;20451;-79
2022/11/28 01:33:53;;;;;;;14.50;9.87;;;4.80;99.90;;;;;;5012867;28;20424;-78
2022/11/28 01:36:20;;;;;;;13.27;9.13;;;4.80;99.90;;;;;;5011341;28;20438;-78
2022/11/28 01:38:46;;;;;;;11.73;8.67;;;4.80;99.90;;;;;;5011060;28;20486;-77
2022/11/28 01:41:13;;;;;;;13.07;8.20;;;4.90;99.90;;;;;;5011258;28;20872;-78
2022/11/28 01:44:04;;;;;;;13.87;9.07;;;4.90;99.90;;;;;;5013027;28;20431;-77
2022/11/28 01:46:31;;;;;;;10.90;8.10;;;4.80;99.90;;;;;;5011162;28;20432;-77
2022/11/28 01:49:23;;;;;;;12.80;8.50;;;4.80;99.90;;;;;;5011143;28;21108;-78
2022/11/28 01:51:54;;;;;;;14.10;9.00;;;4.80;99.90;;;;;;5013094;28;20446;-76
2022/11/28 01:54:22;;;;;;;13.90;8.30;;;4.80;99.90;;;;;;5011009;28;20439;-77
2022/11/28 01:57:11;;;;;;;12.43;8.02;;;4.80;99.90;;;;;;4994880;28;20527;-77
2022/11/28 01:59:41;;;;;;;16.50;9.00;;;4.70;99.90;;;;;;5011630;28;20185;-78
2022/11/28 02:02:10;;;;;;;13.07;8.50;;;4.70;99.90;;;;;;5010927;28;21070;-78
2022/11/28 02:04:35;;;;;;;14.80;9.30;;;4.80;99.90;;;;;;5013773;28;20423;-78
2022/11/28 02:07:01;;;;;;;17.23;9.37;;;4.80;99.90;;;;;;5016007;28;20424;-78
2022/11/28 02:09:27;;;;;;;11.47;9.00;;;4.70;99.90;;;;;;5012154;28;20266;-78
2022/11/28 02:12:10;;;;;;;13.40;8.73;;;4.70;99.90;;;;;;5010786;28;20287;-78
2022/11/28 02:15:19;;;;;;;12.07;8.13;;;4.70;99.90;;;;;;5011157;28;20834;-79
2022/11/28 02:18:35;;;;;;;11.83;9.07;;;4.70;99.90;;;;;;4991977;28;20835;-78
2022/11/28 02:21:09;;;;;;;11.80;8.83;;;4.60;99.90;;;;;;5009437;28;21435;-78
2022/11/28 02:23:52;;;;;;;12.07;8.63;;;4.60;99.90;;;;;;5012034;28;20463;-79
2022/11/28 02:26:43;;;;;;;12.93;9.73;;;4.50;99.90;;;;;;5011927;28;20412;-78
2022/11/28 02:29:30;;;;;;;17.17;10.70;;;4.40;99.90;;;;;;4992461;28;20187;-78
2022/11/28 02:32:18;;;;;;;13.27;9.17;;;4.40;99.90;;;;;;5009924;28;20455;-80
2022/11/28 02:35:10;;;;;;;13.07;9.23;;;4.50;99.90;;;;;;5009786;28;20914;-79
2022/11/28 02:38:02;;;;;;;11.90;8.33;;;4.50;99.90;;;;;;5001550;28;21239;-77
2022/11/28 02:40:56;;;;;;;15.07;8.50;;;4.50;99.90;;;;;;5011106;28;20439;-77
2022/11/28 02:43:54;;;;;;;16.60;9.15;;;4.50;99.90;;;;;;5005052;28;20488;-77
2022/11/28 02:46:27;;;;;;;19.40;9.83;;;4.50;99.90;;;;;;5006115;28;20683;-77
2022/11/28 02:49:06;;;;;;;16.93;9.87;;;4.50;99.90;;;;;;5011030;28;20420;-78
2022/11/28 02:51:45;;;;;;;11.80;8.77;;;4.70;99.90;;;;;;5011023;28;20500;-76
2022/11/28 02:54:14;;;;;;;13.30;8.43;;;4.50;99.90;;;;;;5011184;28;20909;-76
2022/11/28 02:56:50;;;;;;;12.37;8.70;;;4.60;99.90;;;;;;5010766;28;20481;-78
2022/11/28 02:59:37;;;;;;;13.57;8.33;;;4.60;99.90;;;;;;5010805;28;20420;-77
2022/11/28 03:02:06;;;;;;;13.30;9.80;;;4.50;99.90;;;;;;5009043;28;20483;-77
2022/11/28 03:04:38;;;;;;;10.67;8.67;;;4.50;99.90;;;;;;5009298;28;20899;-77
2022/11/28 03:07:12;;;;;;;12.30;8.90;;;4.50;99.90;;;;;;5010540;28;20457;-79
2022/11/28 03:09:46;;;;;;;11.10;8.77;;;4.40;99.90;;;;;;5011003;28;20911;-77
2022/11/28 03:12:30;;;;;;;11.90;9.00;;;4.40;99.90;;;;;;5010525;28;20461;-77
2022/11/28 03:15:08;;;;;;;13.40;9.83;;;4.40;99.90;;;;;;5010839;28;20191;-77
2022/11/28 03:17:44;;;;;;;12.97;9.30;;;4.50;99.90;;;;;;5008880;28;20510;-78
2022/11/28 03:20:46;;;;;;;12.37;9.03;;;4.50;99.90;;;;;;5010266;28;20415;-77
2022/11/28 03:23:30;;;;;;;15.63;9.00;;;4.60;99.90;;;;;;5008890;28;20470;-77
2022/11/28 03:26:19;;;;;;;11.57;8.20;;;4.60;99.90;;;;;;5010569;28;20479;-77
2022/11/28 03:28:52;;;;;;;10.50;8.10;;;4.50;99.90;;;;;;4988812;28;20480;-77
2022/11/28 03:31:26;;;;;;;11.63;8.43;;;4.50;99.90;;;;;;5010258;28;20442;-78
2022/11/28 03:33:55;;;;;;;12.17;8.60;;;4.50;99.90;;;;;;5010089;28;20420;-77
2022/11/28 03:36:38;;;;;;;12.77;8.90;;;4.50;99.90;;;;;;5011286;28;20434;-77
2022/11/28 03:39:09;;;;;;;15.47;9.20;;;4.50;99.90;;;;;;5011707;28;20956;-77
2022/11/28 03:41:47;;;;;;;14.03;9.77;;;4.50;99.90;;;;;;5009977;28;20543;-77
2022/11/28 03:44:20;;;;;;;12.50;8.57;;;4.50;99.90;;;;;;5011608;28;20416;-77
2022/11/28 03:46:49;;;;;;;13.17;8.33;;;4.50;99.90;;;;;;5021949;28;20467;-76
2022/11/28 03:49:20;;;;;;;14.77;8.50;;;4.50;99.90;;;;;;5004592;28;20434;-77
2022/11/28 03:52:00;;;;;;;11.77;8.50;;;4.50;99.90;;;;;;5011201;28;20432;-77
2022/11/28 03:54:34;;;;;;;10.17;8.03;;;4.50;99.90;;;;;;5019588;28;20466;-76
2022/11/28 03:57:31;;;;;;;16.30;8.10;;;4.50;99.90;;;;;;5014096;28;20483;-77
2022/11/28 04:00:01;;;;;;;11.20;8.57;;;4.50;99.90;;;;;;5013939;28;20436;-77
2022/11/28 04:02:26;;;;;;;12.30;8.60;;;4.60;99.90;;;;;;5011360;28;20471;-76
2022/11/28 04:05:27;;;;;;;13.90;9.07;;;4.50;99.90;;;;;;5011397;28;20416;-76
2022/11/28 04:08:00;;;;;;;10.57;8.23;;;4.50;99.90;;;;;;5011411;28;20174;-77
2022/11/28 04:10:37;;;;;;;10.40;8.47;;;4.50;99.90;;;;;;5010557;28;20450;-76
2022/11/28 04:13:24;;;;;;;13.57;9.73;;;4.50;99.90;;;;;;5020635;28;20427;-76
2022/11/28 04:16:04;;;;;;;12.70;8.57;;;4.50;99.90;;;;;;5010389;28;20447;-76
2022/11/28 04:18:41;;;;;;;17.57;10.00;;;4.60;99.90;;;;;;5009808;28;20440;-76
2022/11/28 04:21:18;;;;;;;12.33;8.00;;;4.50;99.90;;;;;;5009483;28;20458;-76
2022/11/28 04:23:45;;;;;;;13.13;8.97;;;4.50;99.90;;;;;;5009807;28;20420;-77
2022/11/28 04:26:27;;;;;;;15.47;8.83;;;4.40;99.90;;;;;;5010146;28;20440;-77
2022/11/28 04:28:58;;;;;;;15.37;9.73;;;4.50;99.90;;;;;;4992219;28;20428;-77
2022/11/28 04:31:25;;;;;;;11.63;8.73;;;4.60;99.90;;;;;;5009866;28;20443;-77
2022/11/28 04:33:56;;;;;;;17.40;9.93;;;4.60;99.90;;;;;;4992332;28;20464;-77
2022/11/28 04:36:24;;;;;;;14.10;9.17;;;4.50;99.90;;;;;;5010034;28;20407;-77
2022/11/28 04:38:55;;;;;;;14.37;10.27;;;4.50;99.90;;;;;;5008287;28;20432;-76
2022/11/28 04:41:36;;;;;;;12.17;8.47;;;4.50;99.90;;;;;;5008177;28;20428;-76
2022/11/28 04:44:32;;;;;;;12.17;8.80;;;4.50;99.90;;;;;;5011513;28;20924;-76
2022/11/28 04:46:58;;;;;;;13.93;9.17;;;4.40;99.90;;;;;;5011826;28;20424;-75
2022/11/28 04:49:26;;;;;;;14.23;9.23;;;4.60;99.90;;;;;;5013189;28;20925;-77
2022/11/28 04:52:12;;;;;;;11.70;8.33;;;4.50;99.90;;;;;;4995313;28;20896;-77
2022/11/28 04:54:45;;;;;;;14.33;9.50;;;4.50;99.90;;;;;;5012942;28;21012;-77
2022/11/28 04:57:33;;;;;;;13.33;9.37;;;4.50;99.90;;;;;;5013023;28;20412;-76
2022/11/28 05:00:02;;;;;;;14.43;10.30;;;4.40;99.90;;;;;;5012728;28;20511;-76
2022/11/28 05:02:28;;;;;;;10.80;9.00;;;4.40;99.90;;;;;;4996373;28;20518;-82
2022/11/28 05:04:54;;;;;;;14.70;9.63;;;4.30;99.90;;;;;;4997509;28;20423;-82
2022/11/28 05:07:22;;;;;;;12.70;9.93;;;4.40;99.90;;;;;;5014110;28;20428;-81
2022/11/28 05:09:48;;;;;;;12.20;8.43;;;4.40;99.90;;;;;;5013593;28;20470;-81
2022/11/28 05:12:14;;;;;;;14.87;8.30;;;4.50;99.90;;;;;;4997055;28;20454;-82
2022/11/28 05:14:39;;;;;;;11.33;8.17;;;4.40;99.90;;;;;;4980673;28;20427;-81
2022/11/28 05:17:06;;;;;;;13.60;8.47;;;4.40;99.90;;;;;;5011953;28;20197;-81
2022/11/28 05:19:31;;;;;;;9.30;7.60;;;4.60;99.90;;;;;;4994684;28;20181;-82
2022/11/28 05:21:57;;;;;;;12.17;8.67;;;4.60;99.90;;;;;;5011435;28;20468;-83
2022/11/28 05:24:23;;;;;;;11.00;7.77;;;4.60;99.90;;;;;;4995574;28;20185;-82
2022/11/28 05:26:49;;;;;;;11.77;8.13;;;4.60;99.90;;;;;;5012958;28;20185;-83
2022/11/28 05:29:15;;;;;;;10.40;8.13;;;4.60;99.90;;;;;;5012149;28;21266;-83
2022/11/28 05:31:41;;;;;;;9.93;6.63;;;4.50;99.90;;;;;;5011831;28;20427;-82
2022/11/28 05:34:06;;;;;;;5.73;4.47;;;4.70;99.90;;;;;;5011839;28;20180;-82
2022/11/28 05:36:32;;;;;;;4.33;3.60;;;4.80;99.90;;;;;;4997357;28;20192;-82
2022/11/28 05:38:58;;;;;;;5.90;3.87;;;5.00;99.90;;;;;;4995077;28;20189;-83
2022/11/28 05:41:28;;;;;;;5.57;3.17;;;5.10;99.90;;;;;;4978852;28;20255;-83
2022/11/28 05:43:55;;;;;;;4.07;3.63;;;5.20;99.90;;;;;;5011289;28;20276;-83
2022/11/28 05:46:21;;;;;;;5.77;4.50;;;5.30;99.90;;;;;;4980675;28;20428;-84
2022/11/28 05:48:47;;;;;;;4.20;3.27;;;5.50;99.90;;;;;;4980004;28;20972;-83
2022/11/28 05:51:13;;;;;;;2.87;2.57;;;5.60;99.90;;;;;;4994561;28;20282;-82
2022/11/28 05:53:38;;;;;;;3.07;2.70;;;5.80;99.90;;;;;;4996571;28;20530;-82
2022/11/28 05:56:22;;;;;;;5.10;2.73;;;5.90;99.90;;;;;;4980804;28;20428;-82
2022/11/28 05:58:48;;;;;;;3.60;2.63;;;6.10;99.90;;;;;;4979783;28;20196;-83
2022/11/28 06:01:22;;;;;;;4.00;2.83;;;6.00;99.90;;;;;;4980070;28;20451;-82
2022/11/28 06:03:48;;;;;;;3.43;2.40;;;5.90;99.90;;;;;;5012970;28;20181;-83
2022/11/28 06:06:25;;;;;;;3.73;2.27;;;6.10;99.90;;;;;;5012867;28;20451;-83
2022/11/28 06:08:51;;;;;;;3.30;2.47;;;6.10;99.90;;;;;;5010353;28;20473;-83
2022/11/28 06:11:17;;;;;;;3.67;2.93;;;6.10;99.90;;;;;;5009724;28;20444;-82
2022/11/28 06:13:44;;;;;;;3.13;2.83;;;6.20;99.90;;;;;;5010479;28;20428;-83
2022/11/28 06:16:12;;;;;;;3.47;2.87;;;6.20;99.90;;;;;;5009723;28;20866;-83
2022/11/28 06:18:38;;;;;;;4.33;3.00;;;6.20;99.90;;;;;;5009512;28;20539;-83
2022/11/28 06:21:05;;;;;;;3.13;2.93;;;6.20;99.90;;;;;;5009237;28;20530;-83
2022/11/28 06:23:32;;;;;;;5.13;4.27;;;6.20;99.90;;;;;;4976803;28;20341;-82
2022/11/28 06:26:02;;;;;;;4.73;4.33;;;6.20;99.90;;;;;;5009396;28;20551;-84
2022/11/28 06:28:28;;;;;;;5.10;4.00;;;6.20;99.90;;;;;;5011799;28;20420;-83
2022/11/28 06:30:53;;;;;;;9.40;3.40;;;6.20;99.90;;;;;;5008965;28;20448;-82
2022/11/28 06:33:19;;;;;;;3.27;2.90;;;6.30;99.90;;;;;;4977132;28;20193;-83
2022/11/28 06:35:45;;;;;;;4.50;3.43;;;6.30;99.90;;;;;;4993133;28;20198;-84
2022/11/28 06:38:10;;;;;;;5.50;3.43;;;6.30;99.90;;;;;;4994198;28;20537;-84
2022/11/28 06:40:38;;;;;;;4.47;3.27;;;6.40;99.90;;;;;;4976919;28;20209;-84
2022/11/28 06:43:03;;;;;;;4.37;2.80;;;6.40;99.90;;;;;;4992549;28;20225;-82
2022/11/28 06:45:29;;;;;;;6.83;3.40;;;6.60;99.90;;;;;;4992446;28;20435;-83
2022/11/28 06:47:55;;;;;;;5.30;3.60;;;6.40;99.90;;;;;;4976664;28;20270;-83
2022/11/28 06:50:20;;;;;;;4.20;3.60;;;6.30;99.90;;;;;;4976233;28;20193;-82
2022/11/28 06:52:46;;;;;;;5.47;4.40;;;6.30;99.90;;;;;;4980268;28;20200;-83
2022/11/28 06:55:11;;;;;;;9.73;3.33;;;6.40;99.90;;;;;;4992954;28;20277;-83
2022/11/28 06:57:38;;;;;;;3.70;3.20;;;6.40;99.90;;;;;;4992411;28;20208;-82
2022/11/28 07:00:04;;;;;;;3.00;2.70;;;6.40;99.90;;;;;;4977016;28;20200;-83
2022/11/28 07:02:31;;;;;;;5.97;4.00;;;6.40;99.90;;;;;;4992458;28;20486;-83
2022/11/28 07:04:56;;;;;;;12.13;6.30;;;6.40;99.90;;;;;;4994255;28;20424;-83
2022/11/28 07:07:22;;;;;;;6.73;5.30;;;6.30;99.90;;;;;;4993595;28;20435;-83
2022/11/28 07:09:49;;;;;;;5.33;4.30;;;6.30;99.90;;;;;;4978337;28;20188;-84
2022/11/28 07:12:14;;;;;;;3.30;3.00;;;6.30;99.90;;;;;;4994092;28;20216;-82
2022/11/28 07:14:40;;;;;;;3.50;3.20;;;6.30;99.90;;;;;;4993110;28;20447;-82
2022/11/28 07:17:06;;;;;;;5.70;3.50;;;6.40;99.90;;;;;;4976546;28;20205;-83
2022/11/28 07:19:31;;;;;;;3.97;3.27;;;6.40;99.90;;;;;;4992616;28;20211;-83
2022/11/28 07:21:57;;;;;;;3.53;3.23;;;6.50;99.90;;;;;;4993580;28;20378;-83
2022/11/28 07:24:22;;;;;;;6.03;4.27;;;6.50;99.90;;;;;;4992990;28;20184;-83
2022/11/28 07:26:48;;;;;;;7.97;5.70;;;6.60;99.90;;;;;;5009170;28;20192;-83
2022/11/28 07:29:16;;;;;;;17.13;6.70;;;6.40;99.90;;;;;;4992837;28;20251;-83
2022/11/28 07:31:42;;;;;;;9.07;7.40;;;6.40;99.90;;;;;;5010040;28;20204;-83
2022/11/28 07:34:08;;;;;;;6.73;4.00;;;6.10;99.90;;;;;;4992908;28;20510;-83
2022/11/28 07:36:34;;;;;;;6.23;4.70;;;6.20;99.90;;;;;;5008944;28;21000;-83
2022/11/28 07:39:01;;;;;;;13.97;7.17;;;6.10;99.90;;;;;;4976610;28;20432;-85
2022/11/28 07:41:27;;;;;;;10.20;6.17;;;6.20;99.90;;;;;;5007935;28;20212;-83
2022/11/28 07:44:02;;;;;;;4.47;3.50;;;6.30;99.90;;;;;;4992783;28;20436;-84
2022/11/28 07:46:29;;;;;;;4.50;3.00;;;6.20;99.90;;;;;;4992348;28;20201;-83
2022/11/28 07:48:55;;;;;;;7.13;3.73;;;6.30;99.90;;;;;;4991688;28;20490;-83
2022/11/28 07:51:24;;;;;;;4.40;3.67;;;6.40;99.90;;;;;;5007657;28;20501;-84
2022/11/28 07:53:50;;;;;;;8.97;3.37;;;6.30;99.90;;;;;;4991428;28;20432;-83
2022/11/28 07:56:21;;;;;;;6.27;3.20;;;6.50;99.90;;;;;;4991594;28;20447;-84
2022/11/28 07:58:47;;;;;;;3.57;3.13;;;6.60;99.90;;;;;;4991125;28;20189;-84
2022/11/28 08:01:19;;;;;;;11.43;4.70;;;6.50;99.90;;;;;;5007278;28;20455;-84
2022/11/28 08:03:46;;;;;;;7.07;5.33;;;6.50;99.90;;;;;;4991066;28;20521;-84
2022/11/28 08:06:16;;;;;;;12.80;5.23;;;6.50;99.90;;;;;;4990642;28;20879;-83
2022/11/28 08:08:44;;;;;;;14.77;10.80;;;6.50;99.90;;;;;;4991741;28;20424;-84
2022/11/28 08:11:10;;;;;;;18.23;12.30;;;6.40;99.90;;;;;;4991339;28;20464;-83
2022/11/28 08:13:37;;;;;;;22.37;17.07;;;6.40;99.90;;;;;;4974738;28;21136;-82
2022/11/28 08:16:06;;;;;;;20.57;14.43;;;6.40;99.90;;;;;;5007196;28;20185;-83
2022/11/28 08:18:33;;;;;;;16.43;11.50;;;6.20;99.90;;;;;;5006258;28;20459;-83
2022/11/28 08:21:17;;;;;;;18.77;11.50;;;6.10;99.90;;;;;;5007222;28;21110;-84
2022/11/28 08:23:44;;;;;;;13.33;9.80;;;6.00;99.90;;;;;;5007289;28;20467;-83
2022/11/28 08:26:12;;;;;;;21.73;11.33;;;6.00;99.90;;;;;;5008897;28;20419;-83
2022/11/28 08:28:38;;;;;;;15.83;11.13;;;5.90;99.90;;;;;;4991309;28;20430;-83
2022/11/28 08:31:11;;;;;;;17.70;10.97;;;5.90;99.90;;;;;;5007279;28;20451;-83
2022/11/28 08:33:37;;;;;;;12.80;9.07;;;5.90;99.90;;;;;;5007644;28;20436;-83
2022/11/28 08:36:04;;;;;;;13.07;9.93;;;5.90;99.90;;;;;;4991213;28;20976;-83
2022/11/28 08:38:30;;;;;;;17.90;9.80;;;5.90;99.90;;;;;;4991251;28;20432;-84
2022/11/28 08:41:07;;;;;;;12.70;9.97;;;5.90;99.90;;;;;;5008270;28;21163;-84
2022/11/28 08:43:35;;;;;;;12.00;8.63;;;5.90;99.90;;;;;;4993667;28;20232;-84
2022/11/28 08:46:01;;;;;;;14.93;8.40;;;5.90;99.90;;;;;;5009931;28;20426;-83
2022/11/28 08:48:28;;;;;;;11.50;8.33;;;5.90;99.90;;;;;;4991494;28;20470;-84
2022/11/28 08:50:53;;;;;;;10.43;7.20;;;5.90;99.90;;;;;;4975421;28;21108;-83
2022/11/28 08:53:19;;;;;;;12.77;7.93;;;5.90;99.90;;;;;;4991503;28;20437;-83
2022/11/28 08:55:45;;;;;;;8.63;6.97;;;5.90;99.90;;;;;;4990894;28;20215;-83
2022/11/28 08:58:11;;;;;;;13.93;8.10;;;5.80;99.90;;;;;;5007282;28;20212;-83
2022/11/28 09:00:37;;;;;;;12.40;8.03;;;5.90;99.90;;;;;;4991166;28;20223;-83
2022/11/28 09:03:04;;;;;;;12.60;8.50;;;5.90;99.90;;;;;;4990309;28;20467;-83
2022/11/28 09:05:30;;;;;;;12.67;8.10;;;6.00;99.90;;;;;;4990889;28;20805;-84
2022/11/28 09:07:56;;;;;;;10.30;6.73;;;6.00;99.90;;;;;;4991117;28;20527;-83
2022/11/28 09:10:23;;;;;;;10.97;8.03;;;6.10;99.90;;;;;;5006664;28;20424;-83
2022/11/28 09:12:50;;;;;;;8.00;5.53;;;6.20;99.90;;;;;;5006744;28;20538;-83
2022/11/28 09:15:17;;;;;;;11.77;7.40;;;6.20;99.90;;;;;;5006799;28;20429;-83
2022/11/28 09:17:44;;;;;;;7.23;5.47;;;6.20;99.90;;;;;;5008176;28;20451;-82
2022/11/28 09:20:10;;;;;;;7.00;5.50;;;6.30;99.90;;;;;;4990071;28;20431;-83
2022/11/28 09:22:36;;;;;;;5.83;4.73;;;6.40;99.90;;;;;;5006862;28;21309;-83
2022/11/28 09:25:02;;;;;;;8.70;5.07;;;6.50;99.90;;;;;;5007498;28;20427;-82
2022/11/28 09:27:27;;;;;;;8.80;4.97;;;6.60;99.90;;;;;;4991917;28;20347;-83
2022/11/28 09:29:53;;;;;;;6.07;4.40;;;6.90;99.90;;;;;;4996924;28;20292;-83
2022/11/28 09:32:18;;;;;;;7.83;5.30;;;6.90;99.90;;;;;;5013996;28;20235;-82
2022/11/28 09:34:44;;;;;;;7.97;5.27;;;7.00;99.90;;;;;;4997592;28;20642;-82
2022/11/28 09:37:10;;;;;;;10.30;5.80;;;7.00;99.90;;;;;;4997746;28;20197;-83
2022/11/28 09:39:35;;;;;;;18.17;9.90;;;7.30;99.90;;;;;;4981435;28;20190;-83
2022/11/28 09:42:20;;;;;;;27.20;16.50;;;7.20;99.90;;;;;;4996918;28;20238;-82
2022/11/28 09:44:51;;;;;;;23.57;15.27;;;7.10;99.90;;;;;;5013977;28;20182;-83
2022/11/28 09:47:31;;;;;;;23.07;12.57;;;7.00;99.90;;;;;;4998296;28;20424;-83
2022/11/28 09:49:59;;;;;;;27.97;13.90;;;7.20;99.90;;;;;;4997544;28;20424;-83
2022/11/28 09:52:27;;;;;;;32.57;15.77;;;7.20;99.90;;;;;;5012497;28;20435;-82
2022/11/28 09:55:38;;;;;;;25.40;15.23;;;7.30;99.90;;;;;;5011807;28;20539;-83
2022/11/28 09:58:30;;;;;;;30.67;15.10;;;7.30;99.90;;;;;;4996110;28;20431;-83
2022/11/28 10:01:00;;;;;;;33.33;18.67;;;7.40;99.90;;;;;;4982793;28;20462;-81
2022/11/28 10:03:46;;;;;;;31.13;18.03;;;7.40;99.90;;;;;;5010219;28;20468;-83
2022/11/28 10:06:27;;;;;;;31.23;16.87;;;7.30;99.90;;;;;;5009746;28;20469;-82
2022/11/28 10:09:33;;;;;;;29.50;15.17;;;7.40;99.90;;;;;;5009673;28;20472;-83
2022/11/28 10:12:20;;;;;;;28.73;14.83;;;7.30;99.90;;;;;;5011282;28;20443;-83
2022/11/28 10:14:58;;;;;;;21.50;12.77;;;7.40;99.90;;;;;;5009602;28;20424;-83
2022/11/28 10:17:55;;;;;;;16.73;9.17;;;7.60;99.90;;;;;;5010764;28;20440;-83
2022/11/28 10:20:25;;;;;;;8.30;5.60;;;7.80;99.90;;;;;;5002604;28;20546;-83
2022/11/28 10:22:51;;;;;;;2.90;1.83;;;8.00;99.90;;;;;;5009347;28;20494;-83
2022/11/28 10:25:38;;;;;;;2.10;1.60;;;8.10;99.90;;;;;;5010041;28;20424;-82
2022/11/28 10:28:15;;;;;;;1.80;1.70;;;8.50;99.90;;;;;;5010012;28;20234;-82
2022/11/28 10:30:46;;;;;;;3.23;1.73;;;8.80;99.90;;;;;;5009393;28;20454;-82
2022/11/28 10:33:18;;;;;;;4.10;1.87;;;8.90;99.90;;;;;;5010832;28;21205;-82
2022/11/28 10:35:47;;;;;;;5.13;2.03;;;9.00;99.90;;;;;;5009074;28;20428;-83
2022/11/28 10:38:14;;;;;;;3.00;2.03;;;9.00;99.10;;;;;;5010053;28;20508;-82
2022/11/28 10:41:11;;;;;;;1.90;1.70;;;9.10;98.80;;;;;;4991827;28;20460;-82
2022/11/28 10:43:45;;;;;;;2.90;1.47;;;9.20;98.60;;;;;;5008848;28;20463;-82
2022/11/28 10:46:26;;;;;;;1.63;1.43;;;9.20;97.70;;;;;;5010332;28;20395;-83
2022/11/28 10:49:07;;;;;;;2.53;1.80;;;9.30;97.90;;;;;;5010176;28;20493;-82
2022/11/28 10:51:46;;;;;;;6.53;1.30;;;9.40;98.30;;;;;;5009647;28;20440;-83
2022/11/28 10:54:33;;;;;;;1.67;1.57;;;9.40;97.70;;;;;;5008656;28;20425;-83
2022/11/28 10:57:04;;;;;;;3.93;2.73;;;9.60;99.00;;;;;;5010146;28;20423;-83
2022/11/28 10:59:53;;;;;;;5.87;2.07;;;9.70;99.50;;;;;;5009353;28;20408;-83
2022/11/28 11:02:20;;;;;;;3.40;2.40;;;9.80;99.90;;;;;;5009317;28;20464;-83
2022/11/28 11:04:46;;;;;;;23.23;11.47;;;10.00;99.40;;;;;;5009146;28;20420;-84
2022/11/28 11:07:32;;;;;;;25.33;10.73;;;10.00;99.90;;;;;;5011182;28;20452;-82
2022/11/28 11:10:18;;;;;;;17.30;9.80;;;10.10;99.90;;;;;;5009572;28;20794;-82
2022/11/28 11:12:45;;;;;;;14.70;8.57;;;10.00;99.90;;;;;;4995539;28;20440;-83
2022/11/28 11:15:30;;;;;;;21.17;9.37;;;10.10;99.90;;;;;;5010216;28;20573;-82
2022/11/28 11:17:58;;;;;;;7.03;3.80;;;10.10;99.90;;;;;;4995173;28;20457;-82
2022/11/28 11:20:35;;;;;;;14.20;7.23;;;10.10;98.60;;;;;;4992649;28;20434;-83
2022/11/28 11:23:12;;;;;;;11.70;5.77;;;10.20;99.00;;;;;;5008830;28;20470;-82
2022/11/28 11:25:49;;;;;;;2.80;2.07;;;10.20;98.70;;;;;;5015919;28;20417;-81
2022/11/28 11:28:35;;;;;;;5.43;3.20;;;10.30;97.40;;;;;;5009020;28;21130;-83
2022/11/28 11:31:14;;;;;;;9.47;4.07;;;10.30;97.70;;;;;;5009025;28;20468;-83
2022/11/28 11:33:41;;;;;;;1.60;1.50;;;10.30;97.00;;;;;;5009746;28;20456;-82
2022/11/28 11:36:23;;;;;;;2.60;2.13;;;10.30;97.00;;;;;;4992812;28;20555;-81
2022/11/28 11:38:49;;;;;;;5.47;2.10;;;10.30;96.30;;;;;;5009152;28;20420;-83
2022/11/28 11:41:29;;;;;;;2.60;1.63;;;10.30;97.20;;;;;;5008692;28;20451;-82
2022/11/28 11:43:56;;;;;;;2.83;1.87;;;10.40;97.10;;;;;;4993681;28;20233;-82
2022/11/28 11:46:21;;;;;;;2.87;1.50;;;10.40;97.20;;;;;;4976521;28;20893;-82
2022/11/28 11:48:51;;;;;;;4.67;1.77;;;10.40;96.20;;;;;;5009209;28;20451;-82
2022/11/28 11:51:31;;;;;;;2.67;1.87;;;10.40;97.70;;;;;;5009110;28;20582;-81
2022/11/28 11:54:01;;;;;;;14.20;8.60;;;10.40;99.90;;;;;;5008474;28;20476;-82
2022/11/28 11:56:30;;;;;;;17.03;11.50;;;10.30;99.90;;;;;;5011122;28;20546;-82
2022/11/28 11:59:00;;;;;;;24.70;13.80;;;10.10;99.90;;;;;;5008528;28;20428;-82
2022/11/28 12:01:29;;;;;;;18.77;13.20;;;9.90;99.90;;;;;;5008696;28;20449;-83
2022/11/28 12:03:59;;;;;;;24.67;14.97;;;9.80;99.90;;;;;;5007977;28;20520;-82
2022/11/28 12:06:37;;;;;;;26.60;14.97;;;9.60;99.90;;;;;;4991582;28;21110;-83
2022/11/28 12:09:06;;;;;;;28.07;14.90;;;9.70;99.90;;;;;;4992098;28;21071;-83
2022/11/28 12:11:37;;;;;;;23.77;14.33;;;9.70;99.90;;;;;;5009420;28;21105;-83
2022/11/28 12:14:24;;;;;;;25.53;12.70;;;9.60;99.90;;;;;;5007570;28;20427;-82
2022/11/28 12:16:59;;;;;;;21.13;13.43;;;9.60;99.90;;;;;;5009417;28;20422;-84
2022/11/28 12:19:56;;;;;;;14.83;10.23;;;9.80;99.90;;;;;;5007669;28;20431;-84
2022/11/28 12:22:33;;;;;;;21.70;13.63;;;9.70;99.90;;;;;;5007669;28;20462;-82
2022/11/28 12:25:33;;;;;;;20.93;11.03;;;9.80;99.90;;;;;;5007534;28;20417;-83
2022/11/28 12:28:26;;;;;;;17.23;11.30;;;9.80;99.90;;;;;;5008033;28;20486;-81
2022/11/28 12:31:19;;;;;;;19.27;13.00;;;9.90;99.90;;;;;;5007113;28;20495;-82
2022/11/28 12:34:12;;;;;;;14.53;8.70;;;9.90;99.90;;;;;;5008930;28;20423;-82
2022/11/28 12:37:01;;;;;;;8.20;5.10;;;10.00;99.90;;;;;;4999706;28;20425;-81
2022/11/28 12:39:37;;;;;;;11.47;8.73;;;10.10;99.90;;;;;;4996837;28;20478;-82
2022/11/28 12:42:21;;;;;;;28.60;17.97;;;10.10;99.90;;;;;;5007151;28;20464;-82
2022/11/28 12:44:58;;;;;;;29.23;15.73;;;10.10;99.90;;;;;;5007055;28;20427;-81
2022/11/28 12:47:40;;;;;;;25.00;15.17;;;9.90;99.90;;;;;;5007091;28;20897;-82
2022/11/28 12:50:44;;;;;;;22.27;13.67;;;9.90;99.90;;;;;;5007131;28;20458;-83
2022/11/28 12:53:38;;;;;;;45.87;24.30;;;9.90;99.90;;;;;;5006656;28;20631;-83
2022/11/28 12:56:03;;;;;;;32.67;18.23;;;9.90;99.90;;;;;;5006757;28;20432;-84
2022/11/28 12:58:35;;;;;;;26.13;15.90;;;9.90;99.90;;;;;;5006914;28;20425;-84
2022/11/28 13:01:12;;;;;;;32.30;20.30;;;10.00;99.90;;;;;;5007028;28;20238;-84
2022/11/28 13:03:56;;;;;;;44.13;25.57;;;10.10;99.90;;;;;;5006574;28;20480;-84
2022/11/28 13:06:38;;;;;;;48.17;24.23;;;10.00;99.90;;;;;;5010664;28;20931;-83
2022/11/28 13:09:03;;;;;;;37.00;22.80;;;10.00;99.90;;;;;;5010748;28;21022;-84
2022/11/28 13:11:37;;;;;;;35.33;19.67;;;10.00;99.90;;;;;;5010685;28;20441;-86
2022/11/28 13:14:03;;;;;;;31.70;16.57;;;9.90;99.90;;;;;;5012463;28;20189;-84
2022/11/28 13:16:51;;;;;;;32.00;19.43;;;9.90;99.90;;;;;;5012207;28;20428;-83